createdAt,value
2023-01-09T00:01:42.673Z,92.79
2023-01-09T00:04:14.084Z,92.82
2023-01-09T00:06:43.951Z,93.30
2023-01-09T00:09:12.723Z,93.14
2023-01-09T00:11:41.567Z,93.06
2023-01-09T00:14:11.118Z,93.17
2023-01-09T00:16:40.294Z,93.07
2023-01-09T00:19:09.251Z,93.11
2023-01-09T00:21:40.387Z,93.46
2023-01-09T00:24:09.676Z,93.45
2023-01-09T00:26:38.379Z,93.53
2023-01-09T00:29:12.368Z,93.57
2023-01-09T00:31:41.081Z,93.55
2023-01-09T00:34:11.757Z,93.47
2023-01-09T00:36:42.004Z,93.67
2023-01-09T00:39:10.757Z,93.53
2023-01-09T00:41:42.406Z,93.83
2023-01-09T00:44:16.341Z,93.59
2023-01-09T00:46:49.310Z,93.54
2023-01-09T00:49:20.109Z,93.47
2023-01-09T00:51:50.922Z,93.67
2023-01-09T00:54:22.011Z,93.89
2023-01-09T00:56:51.523Z,93.81
2023-01-09T00:59:20.297Z,93.70
2023-01-09T01:01:49.334Z,93.59
2023-01-09T01:04:27.980Z,93.82
2023-01-09T01:07:08.174Z,93.65
2023-01-09T01:09:37.067Z,93.66
2023-01-09T01:12:07.528Z,93.64
2023-01-09T01:14:37.550Z,93.75
2023-01-09T01:17:06.835Z,93.77
2023-01-09T01:19:36.284Z,93.67
2023-01-09T01:22:06.557Z,93.53
2023-01-09T01:24:35.291Z,93.72
2023-01-09T01:27:04.211Z,93.71
2023-01-09T01:29:32.932Z,93.66
2023-01-09T01:32:01.711Z,93.61
2023-01-09T01:34:30.651Z,93.52
2023-01-09T01:36:59.447Z,93.67
2023-01-09T01:39:29.658Z,93.64
2023-01-09T01:41:58.448Z,93.59
2023-01-09T01:44:55.779Z,93.77
2023-01-09T01:47:29.606Z,93.38
2023-01-09T01:49:58.539Z,93.41
2023-01-09T01:52:27.685Z,93.29
2023-01-09T01:54:58.007Z,93.35
2023-01-09T01:57:27.365Z,93.34
2023-01-09T02:00:00.508Z,93.52
2023-01-09T02:02:33.445Z,93.48
2023-01-09T02:05:06.807Z,93.43
2023-01-09T02:07:35.366Z,93.61
2023-01-09T02:10:06.087Z,93.90
2023-01-09T02:12:34.860Z,94.05
2023-01-09T02:15:07.836Z,93.99
2023-01-09T02:17:59.116Z,93.99
2023-01-09T02:20:43.665Z,94.08
2023-01-09T02:23:40.902Z,94.31
2023-01-09T02:26:36.228Z,94.22
2023-01-09T02:29:29.917Z,94.73
2023-01-09T02:32:06.581Z,94.99
2023-01-09T02:34:47.185Z,94.70
2023-01-09T02:37:27.138Z,94.66
2023-01-09T02:40:06.150Z,95.08
2023-01-09T02:42:37.528Z,95.71
2023-01-09T02:45:07.268Z,95.38
2023-01-09T02:47:39.066Z,95.13
2023-01-09T02:50:12.150Z,94.86
2023-01-09T02:53:07.349Z,93.69
2023-01-09T02:55:51.705Z,93.24
2023-01-09T02:58:33.659Z,92.15
2023-01-09T03:01:14.308Z,89.82
2023-01-09T03:03:50.565Z,88.33
2023-01-09T03:06:24.009Z,87.53
2023-01-09T03:08:56.987Z,86.99
2023-01-09T03:11:29.791Z,85.96
2023-01-09T03:14:08.818Z,86.14
2023-01-09T03:16:39.395Z,85.55
2023-01-09T03:19:15.258Z,85.71
2023-01-09T03:21:46.451Z,85.73
2023-01-09T03:24:15.469Z,86.41
2023-01-09T03:26:44.593Z,86.31
2023-01-09T03:29:13.300Z,86.75
2023-01-09T03:31:42.016Z,87.29
2023-01-09T03:34:12.399Z,87.94
2023-01-09T03:36:42.037Z,88.16
2023-01-09T03:39:10.433Z,88.14
2023-01-09T03:41:39.209Z,88.11
2023-01-09T03:44:08.142Z,88.11
2023-01-09T03:46:36.921Z,88.14
2023-01-09T03:49:05.726Z,88.79
2023-01-09T03:51:35.848Z,87.87
2023-01-09T03:54:04.731Z,88.60
2023-01-09T03:56:33.478Z,88.05
2023-01-09T03:59:02.382Z,88.96
2023-01-09T04:01:31.190Z,89.32
2023-01-09T04:04:00.181Z,88.67
2023-01-09T04:06:28.978Z,88.95
2023-01-09T04:08:59.169Z,88.76
2023-01-09T04:11:28.108Z,89.41
2023-01-09T04:13:56.887Z,89.48
2023-01-09T04:16:25.672Z,88.71
2023-01-09T04:18:54.358Z,89.27
2023-01-09T04:21:23.449Z,89.67
2023-01-09T04:23:52.181Z,89.53
2023-01-09T04:26:22.643Z,89.51
2023-01-09T04:28:51.422Z,89.37
2023-01-09T04:31:20.213Z,88.95
2023-01-09T04:33:49.022Z,89.28
2023-01-09T04:36:17.801Z,89.99
2023-01-09T04:38:46.505Z,89.72
2023-01-09T04:41:35.535Z,89.19
2023-01-09T04:44:05.942Z,89.83
2023-01-09T04:46:34.709Z,89.50
2023-01-09T04:49:03.437Z,90.37
2023-01-09T04:51:32.301Z,89.55
2023-01-09T04:54:00.939Z,90.17
2023-01-09T04:56:29.878Z,90.01
2023-01-09T04:58:58.669Z,89.83
2023-01-09T05:01:28.956Z,90.73
2023-01-09T05:03:58.102Z,89.80
2023-01-09T05:06:26.939Z,90.14
2023-01-09T05:08:56.870Z,90.72
2023-01-09T05:11:26.977Z,90.64
2023-01-09T05:13:55.754Z,90.24
2023-01-09T05:16:24.564Z,90.90
2023-01-09T05:18:57.441Z,90.98
2023-01-09T05:21:26.379Z,91.42
2023-01-09T05:23:55.372Z,90.66
2023-01-09T05:26:25.265Z,91.51
2023-01-09T05:28:53.955Z,91.17
2023-01-09T05:31:23.033Z,91.25
2023-01-09T05:33:51.953Z,90.87
2023-01-09T05:36:22.174Z,91.34
2023-01-09T05:38:50.967Z,90.47
2023-01-09T05:41:19.748Z,90.18
2023-01-09T05:43:49.889Z,90.39
2023-01-09T05:46:18.776Z,90.19
2023-01-09T05:48:47.619Z,90.13
2023-01-09T05:51:16.535Z,90.55
2023-01-09T05:53:46.702Z,89.86
2023-01-09T05:56:15.623Z,89.76
2023-01-09T05:58:44.390Z,90.00
2023-01-09T06:01:13.353Z,90.20
2023-01-09T06:03:42.212Z,89.98
2023-01-09T06:06:11.021Z,90.55
2023-01-09T06:08:39.856Z,90.20
2023-01-09T06:11:10.515Z,89.90
2023-01-09T06:13:39.331Z,89.94
2023-01-09T06:16:09.187Z,89.40
2023-01-09T06:18:38.175Z,89.76
2023-01-09T06:21:07.267Z,89.43
2023-01-09T06:23:36.049Z,89.56
2023-01-09T06:26:04.956Z,89.48
2023-01-09T06:28:35.246Z,89.71
2023-01-09T06:31:04.238Z,89.12
2023-01-09T06:33:33.395Z,88.76
2023-01-09T06:36:02.230Z,88.88
2023-01-09T06:38:31.099Z,89.02
2023-01-09T06:40:59.949Z,87.82
2023-01-09T06:43:28.899Z,87.38
2023-01-09T06:45:59.597Z,87.07
2023-01-09T06:48:28.834Z,87.92
2023-01-09T06:50:57.747Z,88.79
2023-01-09T06:53:26.573Z,88.50
2023-01-09T06:55:55.291Z,88.77
2023-01-09T06:58:24.080Z,88.23
2023-01-09T07:00:54.097Z,87.92
2023-01-09T07:03:24.446Z,87.70
2023-01-09T07:05:53.492Z,87.36
2023-01-09T07:08:22.201Z,87.20
2023-01-09T07:10:50.980Z,87.65
2023-01-09T07:13:19.670Z,88.11
2023-01-09T07:15:50.617Z,87.33
2023-01-09T07:18:19.437Z,88.15
2023-01-09T07:20:49.821Z,87.46
2023-01-09T07:23:18.987Z,87.96
2023-01-09T07:25:48.323Z,87.07
2023-01-09T07:28:17.106Z,87.87
2023-01-09T07:30:45.899Z,88.19
2023-01-09T07:33:14.702Z,87.71
2023-01-09T07:35:43.652Z,88.33
2023-01-09T07:38:14.238Z,88.53
2023-01-09T07:40:43.110Z,88.89
2023-01-09T07:43:11.820Z,88.88
2023-01-09T07:45:40.707Z,88.39
2023-01-09T07:48:09.466Z,88.65
2023-01-09T07:50:38.205Z,88.43
2023-01-09T07:53:06.961Z,88.21
2023-01-09T07:55:37.153Z,88.95
2023-01-09T07:58:05.914Z,88.68
2023-01-09T08:00:35.307Z,89.11
2023-01-09T08:03:04.248Z,89.27
2023-01-09T08:05:32.931Z,89.19
2023-01-09T08:08:02.159Z,89.46
2023-01-09T08:10:30.723Z,89.73
2023-01-09T08:13:00.867Z,89.43
2023-01-09T08:15:29.775Z,89.34
2023-01-09T08:17:58.396Z,90.28
2023-01-09T08:20:27.703Z,89.65
2023-01-09T08:22:57.027Z,89.62
2023-01-09T08:25:25.897Z,89.67
2023-01-09T08:27:54.715Z,90.57
2023-01-09T08:30:24.910Z,90.75
2023-01-09T08:32:55.565Z,90.91
2023-01-09T08:35:24.533Z,90.18
2023-01-09T08:37:53.223Z,90.79
2023-01-09T08:40:21.880Z,91.27
2023-01-09T08:43:00.966Z,90.60
2023-01-09T08:45:41.348Z,91.50
2023-01-09T08:48:10.561Z,91.63
2023-01-09T08:50:39.509Z,92.12
2023-01-09T08:53:08.355Z,91.79
2023-01-09T08:55:37.047Z,92.56
2023-01-09T08:58:05.937Z,92.59
2023-01-09T09:00:36.079Z,92.88
2023-01-09T09:03:05.263Z,92.08
2023-01-09T09:05:34.706Z,92.35
2023-01-09T09:08:04.302Z,92.01
2023-01-09T09:10:32.945Z,92.90
2023-01-09T09:13:01.825Z,92.45
2023-01-09T09:15:30.739Z,92.65
2023-01-09T09:18:03.879Z,93.00
2023-01-09T09:20:35.499Z,92.63
2023-01-09T09:23:04.958Z,92.73
2023-01-09T09:25:33.961Z,92.27
2023-01-09T09:28:02.766Z,92.27
2023-01-09T09:30:31.559Z,92.58
2023-01-09T09:33:04.919Z,92.67
2023-01-09T09:35:34.967Z,93.47
2023-01-09T09:38:06.582Z,92.59
2023-01-09T09:41:08.013Z,93.14
2023-01-09T09:44:09.507Z,92.95
2023-01-09T09:46:45.001Z,92.83
2023-01-09T09:49:21.162Z,93.30
2023-01-09T09:52:01.763Z,92.98
2023-01-09T09:54:35.829Z,93.11
2023-01-09T09:57:07.520Z,92.57
2023-01-09T09:59:39.239Z,93.38
2023-01-09T10:02:25.673Z,93.26
2023-01-09T10:05:02.128Z,92.17
2023-01-09T10:07:38.873Z,92.22
2023-01-09T10:10:16.055Z,92.26
2023-01-09T10:12:53.787Z,92.50
2023-01-09T10:15:32.180Z,92.29
2023-01-09T10:18:14.553Z,91.94
2023-01-09T10:20:58.296Z,91.71
2023-01-09T10:23:58.114Z,92.02
2023-01-09T10:26:31.172Z,91.82
2023-01-09T10:29:25.397Z,92.15
2023-01-09T10:32:05.508Z,92.45
2023-01-09T10:34:49.039Z,92.84
2023-01-09T10:37:23.089Z,92.27
2023-01-09T10:39:56.969Z,92.47
2023-01-09T10:42:33.651Z,93.08
2023-01-09T10:45:08.052Z,92.93
2023-01-09T10:47:39.149Z,92.87
2023-01-09T10:50:21.190Z,93.21
2023-01-09T10:52:54.857Z,92.80
2023-01-09T10:55:41.509Z,92.68
2023-01-09T10:58:13.712Z,92.91
2023-01-09T11:00:43.617Z,93.30
2023-01-09T11:03:14.389Z,93.56
2023-01-09T11:05:43.571Z,93.59
2023-01-09T11:08:25.592Z,93.55
2023-01-09T11:10:56.820Z,93.85
2023-01-09T11:13:29.533Z,93.83
2023-01-09T11:16:04.708Z,93.25
2023-01-09T11:18:34.240Z,94.23
2023-01-09T11:21:16.614Z,93.74
2023-01-09T11:23:46.884Z,93.19
2023-01-09T11:26:25.450Z,93.92
2023-01-09T11:29:09.014Z,93.92
2023-01-09T11:31:38.115Z,93.67
2023-01-09T11:34:08.845Z,93.75
2023-01-09T11:36:37.985Z,93.58
2023-01-09T11:39:21.070Z,93.58
2023-01-09T11:41:55.231Z,93.79
2023-01-09T11:44:25.098Z,94.58
2023-01-09T11:46:53.903Z,94.30
2023-01-09T11:49:25.655Z,94.70
2023-01-09T11:52:16.319Z,94.88
2023-01-09T11:54:51.885Z,95.30
2023-01-09T11:57:23.165Z,94.68
2023-01-09T11:59:53.279Z,95.26
2023-01-09T12:02:43.010Z,94.93
2023-01-09T12:05:23.426Z,94.71
2023-01-09T12:08:06.976Z,95.17
2023-01-09T12:11:05.117Z,95.51
2023-01-09T12:13:51.950Z,95.58
2023-01-09T12:16:33.383Z,95.62
2023-01-09T12:19:17.739Z,95.54
2023-01-09T12:21:52.185Z,94.97
2023-01-09T12:24:50.855Z,95.50
2023-01-09T12:27:30.155Z,95.44
2023-01-09T12:30:12.303Z,95.71
2023-01-09T12:32:54.069Z,94.76
2023-01-09T12:35:35.045Z,95.09
2023-01-09T12:38:35.111Z,94.99
2023-01-09T12:41:20.268Z,94.20
2023-01-09T12:44:03.930Z,94.64
2023-01-09T12:46:39.091Z,94.37
2023-01-09T12:49:28.206Z,95.07
2023-01-09T12:52:05.221Z,94.83
2023-01-09T12:54:44.610Z,94.36
2023-01-09T12:57:23.271Z,94.58
2023-01-09T12:59:57.803Z,94.10
2023-01-09T13:02:32.904Z,94.12
2023-01-09T13:05:11.327Z,94.26
2023-01-09T13:07:45.287Z,94.22
2023-01-09T13:10:23.794Z,94.58
2023-01-09T13:12:54.250Z,93.77
2023-01-09T13:15:31.902Z,94.65
2023-01-09T13:18:07.438Z,93.81
2023-01-09T13:20:43.565Z,94.53
2023-01-09T13:23:23.760Z,94.61
2023-01-09T13:25:57.802Z,94.54
2023-01-09T13:28:32.732Z,95.33
2023-01-09T13:31:26.531Z,94.88
2023-01-09T13:33:58.613Z,95.24
2023-01-09T13:36:30.374Z,94.90
2023-01-09T13:39:01.183Z,95.10
2023-01-09T13:41:41.338Z,94.80
2023-01-09T13:44:24.395Z,94.94
2023-01-09T13:46:58.621Z,95.08
2023-01-09T13:49:49.405Z,95.10
2023-01-09T13:52:37.652Z,95.14
2023-01-09T13:55:26.522Z,95.32
2023-01-09T13:58:16.825Z,95.20
2023-01-09T14:01:02.213Z,95.64
2023-01-09T14:03:36.022Z,95.84
2023-01-09T14:06:16.709Z,95.77
2023-01-09T14:08:48.491Z,96.21
2023-01-09T14:11:27.743Z,95.97
2023-01-09T14:14:18.398Z,95.43
2023-01-09T14:16:47.247Z,94.96
2023-01-09T14:19:32.767Z,95.66
2023-01-09T14:22:02.248Z,95.26
2023-01-09T14:24:34.158Z,94.75
2023-01-09T14:27:03.627Z,95.14
2023-01-09T14:29:45.269Z,94.67
2023-01-09T14:32:37.041Z,95.10
2023-01-09T14:35:17.643Z,95.32
2023-01-09T14:37:56.394Z,94.85
2023-01-09T14:40:25.270Z,94.51
2023-01-09T14:42:56.867Z,95.29
2023-01-09T14:45:27.654Z,95.20
2023-01-09T14:48:00.597Z,94.42
2023-01-09T14:50:35.434Z,94.42
2023-01-09T14:53:12.464Z,94.63
2023-01-09T14:55:51.266Z,94.20
2023-01-09T14:58:26.165Z,93.65
2023-01-09T15:01:02.015Z,94.09
2023-01-09T15:03:36.254Z,93.97
2023-01-09T15:06:08.087Z,93.99
2023-01-09T15:08:38.215Z,94.67
2023-01-09T15:11:07.264Z,94.14
2023-01-09T15:13:38.650Z,93.62
2023-01-09T15:16:16.219Z,93.83
2023-01-09T15:18:45.369Z,94.03
2023-01-09T15:21:21.589Z,93.41
2023-01-09T15:23:50.564Z,94.45
2023-01-09T15:26:27.904Z,93.97
2023-01-09T15:29:03.397Z,94.38
2023-01-09T15:31:32.710Z,94.59
2023-01-09T15:34:05.349Z,94.59
2023-01-09T15:36:39.986Z,94.22
2023-01-09T15:39:08.997Z,94.63
2023-01-09T15:41:47.797Z,94.21
2023-01-09T15:44:20.106Z,94.37
2023-01-09T15:46:52.054Z,94.22
2023-01-09T15:49:21.457Z,94.38
2023-01-09T15:51:52.390Z,94.76
2023-01-09T15:54:28.815Z,94.59
2023-01-09T15:57:34.504Z,94.04
2023-01-09T16:00:24.235Z,93.99
2023-01-09T16:03:02.576Z,94.87
2023-01-09T16:05:33.576Z,93.88
2023-01-09T16:08:04.441Z,94.72
2023-01-09T16:10:37.113Z,94.38
2023-01-09T16:13:06.726Z,94.22
2023-01-09T16:15:36.899Z,94.93
2023-01-09T16:18:19.785Z,94.90
2023-01-09T16:20:49.471Z,94.54
2023-01-09T16:23:25.346Z,94.16
2023-01-09T16:26:05.190Z,94.80
2023-01-09T16:28:34.436Z,95.03
2023-01-09T16:31:08.592Z,94.75
2023-01-09T16:33:44.975Z,94.54
2023-01-09T16:36:17.275Z,94.72
2023-01-09T16:38:49.323Z,94.71
2023-01-09T16:41:29.932Z,94.81
2023-01-09T16:43:59.128Z,94.96
2023-01-09T16:46:28.474Z,95.44
2023-01-09T16:48:57.278Z,95.55
2023-01-09T16:51:26.146Z,95.35
2023-01-09T16:53:56.674Z,94.83
2023-01-09T16:56:28.127Z,95.32
2023-01-09T16:58:57.693Z,95.42
2023-01-09T17:01:27.114Z,95.58
2023-01-09T17:03:56.271Z,95.30
2023-01-09T17:06:28.133Z,95.24
2023-01-09T17:08:59.003Z,95.90
2023-01-09T17:11:32.257Z,95.56
2023-01-09T17:14:03.146Z,95.30
2023-01-09T17:16:32.309Z,95.68
2023-01-09T17:19:01.184Z,95.61
2023-01-09T17:21:31.287Z,95.34
2023-01-09T17:24:11.380Z,95.57
2023-01-09T17:26:52.624Z,95.58
2023-01-09T17:29:21.558Z,95.98
2023-01-09T17:31:50.390Z,95.65
2023-01-09T17:34:19.707Z,95.97
2023-01-09T17:36:48.667Z,96.02
2023-01-09T17:39:19.276Z,95.73
2023-01-09T17:41:49.003Z,96.41
2023-01-09T17:44:17.781Z,95.70
2023-01-09T17:46:46.655Z,96.56
2023-01-09T17:49:19.052Z,96.13
2023-01-09T17:51:48.151Z,96.09
2023-01-09T17:54:20.992Z,96.31
2023-01-09T17:56:52.513Z,96.30
2023-01-09T17:59:21.300Z,96.29
2023-01-09T18:01:50.101Z,96.83
2023-01-09T18:04:18.999Z,96.51
2023-01-09T18:06:49.589Z,96.79
2023-01-09T18:09:19.824Z,96.61
2023-01-09T18:11:49.005Z,96.12
2023-01-09T18:14:20.309Z,96.59
2023-01-09T18:16:49.330Z,96.48
2023-01-09T18:19:18.119Z,96.73
2023-01-09T18:21:47.650Z,97.21
2023-01-09T18:24:16.790Z,96.88
2023-01-09T18:26:46.926Z,96.44
2023-01-09T18:29:15.697Z,96.95
2023-01-09T18:31:44.517Z,96.74
2023-01-09T18:34:13.353Z,96.68
2023-01-09T18:36:42.136Z,96.81
2023-01-09T18:39:13.306Z,96.96
2023-01-09T18:41:42.903Z,96.49
2023-01-09T18:44:12.850Z,96.63
2023-01-09T18:46:42.295Z,97.42
2023-01-09T18:49:11.410Z,97.19
2023-01-09T18:51:40.364Z,97.04
2023-01-09T18:54:09.366Z,96.96
2023-01-09T18:56:38.103Z,96.57
2023-01-09T18:59:07.299Z,96.49
2023-01-09T19:01:37.683Z,97.01
2023-01-09T19:04:06.630Z,97.26
2023-01-09T19:06:37.053Z,97.66
2023-01-09T19:09:06.781Z,96.90
2023-01-09T19:11:35.198Z,97.15
2023-01-09T19:14:04.077Z,97.00
2023-01-09T19:16:33.366Z,97.02
2023-01-09T19:19:03.672Z,97.33
2023-01-09T19:21:32.946Z,98.23
2023-01-09T19:24:01.901Z,96.79
2023-01-09T19:26:32.490Z,97.40
2023-01-09T19:29:01.541Z,97.52
2023-01-09T19:31:30.563Z,97.43
2023-01-09T19:33:59.725Z,97.61
2023-01-09T19:36:30.286Z,97.77
2023-01-09T19:38:59.741Z,97.25
2023-01-09T19:41:29.837Z,97.50
2023-01-09T19:44:00.361Z,97.27
2023-01-09T19:46:30.558Z,97.39
2023-01-09T19:48:59.280Z,96.92
2023-01-09T19:51:29.445Z,97.92
2023-01-09T19:56:35.740Z,98.20
2023-01-09T19:59:06.148Z,97.52
2023-01-09T20:01:36.965Z,97.60
2023-01-09T20:04:13.894Z,97.48
2023-01-09T20:06:47.247Z,97.23
2023-01-09T20:09:17.921Z,97.73
2023-01-09T20:11:46.796Z,97.34
2023-01-09T20:14:18.036Z,98.14
2023-01-09T20:16:48.776Z,97.78
2023-01-09T20:19:18.269Z,97.96
2023-01-09T20:21:49.456Z,97.62
2023-01-09T20:24:18.313Z,97.84
2023-01-09T20:26:47.559Z,98.04
2023-01-09T20:29:17.184Z,97.73
2023-01-09T20:31:45.703Z,97.32
2023-01-09T20:34:16.764Z,97.47
2023-01-09T20:36:46.518Z,97.73
2023-01-09T20:39:16.792Z,97.80
2023-01-09T20:41:45.569Z,98.10
2023-01-09T20:44:16.221Z,98.46
2023-01-09T20:46:48.437Z,97.86
2023-01-09T20:49:19.639Z,98.07
2023-01-09T20:51:49.807Z,97.52
2023-01-09T20:54:22.566Z,97.59
2023-01-09T20:56:51.916Z,97.89
2023-01-09T20:59:22.439Z,98.13
2023-01-09T21:01:52.430Z,97.77
2023-01-09T21:04:21.250Z,98.17
2023-01-09T21:06:50.569Z,98.09
2023-01-09T21:09:21.358Z,98.12
2023-01-09T21:11:50.162Z,98.05
2023-01-09T21:14:18.942Z,98.40
2023-01-09T21:16:54.507Z,98.23
2023-01-09T21:19:24.334Z,98.10
2023-01-09T21:21:53.600Z,97.96
2023-01-09T21:24:23.829Z,97.76
2023-01-09T21:26:53.052Z,98.11
2023-01-09T21:29:21.859Z,97.87
2023-01-09T21:31:50.627Z,98.15
2023-01-09T21:34:20.934Z,97.76
2023-01-09T21:36:49.928Z,97.57
2023-01-09T21:39:20.425Z,97.14
2023-01-09T21:42:00.377Z,97.78
2023-01-09T21:44:39.500Z,96.73
2023-01-09T21:47:08.416Z,96.63
2023-01-09T21:49:41.277Z,97.25
2023-01-09T21:52:10.967Z,96.97
2023-01-09T21:54:39.909Z,96.88
2023-01-09T21:57:10.630Z,97.01
2023-01-09T21:59:39.265Z,96.90
2023-01-09T22:02:08.309Z,96.39
2023-01-09T22:04:37.123Z,96.34
2023-01-09T22:07:06.189Z,96.47
2023-01-09T22:09:35.014Z,95.89
2023-01-09T22:12:03.880Z,96.34
2023-01-09T22:14:34.054Z,96.34
2023-01-09T22:17:02.781Z,95.82
2023-01-09T22:19:31.596Z,95.99
2023-01-09T22:22:02.911Z,95.99
2023-01-09T22:24:31.740Z,95.41
2023-01-09T22:27:00.487Z,95.82
2023-01-09T22:29:29.418Z,96.15
2023-01-09T22:31:59.597Z,96.08
2023-01-09T22:34:28.503Z,95.88
2023-01-09T22:36:57.166Z,95.92
2023-01-09T22:39:26.478Z,95.85
2023-01-09T22:41:55.708Z,95.40
2023-01-09T22:44:24.918Z,95.27
2023-01-09T22:46:53.553Z,95.44
2023-01-09T22:49:25.087Z,95.11
2023-01-09T22:51:55.219Z,95.10
2023-01-09T22:54:23.819Z,94.93
2023-01-09T22:56:52.826Z,95.13
2023-01-09T22:59:21.522Z,94.63
2023-01-09T23:01:50.446Z,94.95
2023-01-09T23:04:19.170Z,95.45
2023-01-09T23:06:49.428Z,94.77
2023-01-09T23:09:18.367Z,95.17
2023-01-09T23:12:04.013Z,95.14
2023-01-09T23:14:44.120Z,95.39
2023-01-09T23:17:23.100Z,95.03
2023-01-09T23:20:01.785Z,95.35
2023-01-09T23:22:42.672Z,94.73
2023-01-09T23:25:22.554Z,95.09
2023-01-09T23:28:02.270Z,95.38
2023-01-09T23:30:42.013Z,95.05
2023-01-09T23:33:21.624Z,94.42
2023-01-09T23:36:01.330Z,95.01
2023-01-09T23:38:42.456Z,94.88
2023-01-09T23:41:42.445Z,94.67
2023-01-09T23:44:21.425Z,95.02
2023-01-09T23:47:01.191Z,95.50
2023-01-09T23:49:42.340Z,95.14
2023-01-09T23:52:21.110Z,95.08
2023-01-09T23:55:02.405Z,94.91
2023-01-09T23:57:42.082Z,94.91
